sensor_id;sensor_type;location;lat;lon;timestamp;P1;durP1;ratioP1;P2;durP2;ratioP2
13343;SDS011;6741;48.964;9.406;2022-10-31T00:00:04;13.60;;;6.73;;
13343;SDS011;6741;48.964;9.406;2022-10-31T00:02:33;7.53;;;5.77;;
13343;SDS011;6741;48.964;9.406;2022-10-31T00:05:00;9.47;;;6.43;;
13343;SDS011;6741;48.964;9.406;2022-10-31T00:07:27;7.97;;;6.00;;
13343;SDS011;6741;48.964;9.406;2022-10-31T00:09:55;9.07;;;5.47;;
13343;SDS011;6741;48.964;9.406;2022-10-31T00:12:22;12.03;;;6.37;;
13343;SDS011;6741;48.964;9.406;2022-10-31T00:14:49;12.40;;;7.23;;
13343;SDS011;6741;48.964;9.406;2022-10-31T00:17:16;12.10;;;7.50;;
13343;SDS011;6741;48.964;9.406;2022-10-31T00:19:43;12.33;;;7.93;;
13343;SDS011;6741;48.964;9.406;2022-10-31T00:22:10;17.47;;;8.63;;
13343;SDS011;6741;48.964;9.406;2022-10-31T00:24:37;12.70;;;7.47;;
13343;SDS011;6741;48.964;9.406;2022-10-31T00:27:05;12.67;;;8.47;;
13343;SDS011;6741;48.964;9.406;2022-10-31T00:29:32;15.13;;;8.13;;
13343;SDS011;6741;48.964;9.406;2022-10-31T00:31:59;9.90;;;7.50;;
13343;SDS011;6741;48.964;9.406;2022-10-31T00:34:26;17.00;;;8.97;;
13343;SDS011;6741;48.964;9.406;2022-10-31T00:36:53;16.40;;;7.60;;
13343;SDS011;6741;48.964;9.406;2022-10-31T00:39:20;15.07;;;7.63;;
13343;SDS011;6741;48.964;9.406;2022-10-31T00:41:47;13.30;;;7.93;;
13343;SDS011;6741;48.964;9.406;2022-10-31T00:44:15;14.07;;;8.00;;
13343;SDS011;6741;48.964;9.406;2022-10-31T00:46:42;15.13;;;7.97;;
13343;SDS011;6741;48.964;9.406;2022-10-31T00:49:09;16.40;;;8.43;;
13343;SDS011;6741;48.964;9.406;2022-10-31T00:51:37;14.77;;;8.37;;
13343;SDS011;6741;48.964;9.406;2022-10-31T00:54:04;13.90;;;7.70;;
13343;SDS011;6741;48.964;9.406;2022-10-31T00:56:31;11.23;;;7.63;;
13343;SDS011;6741;48.964;9.406;2022-10-31T00:58:58;13.47;;;7.37;;
13343;SDS011;6741;48.964;9.406;2022-10-31T01:01:26;12.40;;;7.30;;
13343;SDS011;6741;48.964;9.406;2022-10-31T01:03:53;12.43;;;7.27;;
13343;SDS011;6741;48.964;9.406;2022-10-31T01:06:20;12.73;;;6.93;;
13343;SDS011;6741;48.964;9.406;2022-10-31T01:08:47;12.03;;;7.40;;
13343;SDS011;6741;48.964;9.406;2022-10-31T01:11:15;12.73;;;6.63;;
13343;SDS011;6741;48.964;9.406;2022-10-31T01:13:44;14.23;;;6.60;;
13343;SDS011;6741;48.964;9.406;2022-10-31T01:16:12;12.67;;;7.00;;
13343;SDS011;6741;48.964;9.406;2022-10-31T01:18:41;11.00;;;6.67;;
13343;SDS011;6741;48.964;9.406;2022-10-31T01:21:09;9.23;;;6.33;;
13343;SDS011;6741;48.964;9.406;2022-10-31T01:23:38;10.33;;;6.27;;
13343;SDS011;6741;48.964;9.406;2022-10-31T01:26:06;11.37;;;6.47;;
13343;SDS011;6741;48.964;9.406;2022-10-31T01:28:35;12.60;;;6.23;;
13343;SDS011;6741;48.964;9.406;2022-10-31T01:31:04;7.20;;;5.67;;
13343;SDS011;6741;48.964;9.406;2022-10-31T01:33:33;9.33;;;5.40;;
13343;SDS011;6741;48.964;9.406;2022-10-31T01:36:10;7.20;;;5.73;;
13343;SDS011;6741;48.964;9.406;2022-10-31T01:38:38;10.60;;;5.80;;
13343;SDS011;6741;48.964;9.406;2022-10-31T01:41:05;9.43;;;5.57;;
13343;SDS011;6741;48.964;9.406;2022-10-31T01:43:42;8.47;;;5.57;;
13343;SDS011;6741;48.964;9.406;2022-10-31T01:46:10;9.37;;;5.40;;
13343;SDS011;6741;48.964;9.406;2022-10-31T01:48:38;9.30;;;5.53;;
13343;SDS011;6741;48.964;9.406;2022-10-31T01:51:08;7.97;;;5.70;;
13343;SDS011;6741;48.964;9.406;2022-10-31T01:53:39;7.27;;;5.60;;
13343;SDS011;6741;48.964;9.406;2022-10-31T01:56:07;8.07;;;5.63;;
13343;SDS011;6741;48.964;9.406;2022-10-31T01:58:35;12.40;;;5.90;;
13343;SDS011;6741;48.964;9.406;2022-10-31T02:01:02;7.30;;;5.63;;
13343;SDS011;6741;48.964;9.406;2022-10-31T02:03:30;10.17;;;5.63;;
13343;SDS011;6741;48.964;9.406;2022-10-31T02:05:58;7.70;;;5.20;;
13343;SDS011;6741;48.964;9.406;2022-10-31T02:08:27;9.43;;;5.87;;
13343;SDS011;6741;48.964;9.406;2022-10-31T02:10:56;8.47;;;5.73;;
13343;SDS011;6741;48.964;9.406;2022-10-31T02:13:24;11.50;;;6.03;;
13343;SDS011;6741;48.964;9.406;2022-10-31T02:15:52;7.77;;;5.40;;
13343;SDS011;6741;48.964;9.406;2022-10-31T02:18:23;8.10;;;5.40;;
13343;SDS011;6741;48.964;9.406;2022-10-31T02:20:55;6.70;;;5.07;;
13343;SDS011;6741;48.964;9.406;2022-10-31T02:23:33;9.17;;;5.87;;
13343;SDS011;6741;48.964;9.406;2022-10-31T02:26:31;10.97;;;6.07;;
13343;SDS011;6741;48.964;9.406;2022-10-31T02:29:13;11.23;;;6.10;;
13343;SDS011;6741;48.964;9.406;2022-10-31T02:31:57;9.23;;;5.70;;
13343;SDS011;6741;48.964;9.406;2022-10-31T02:34:34;11.07;;;5.80;;
13343;SDS011;6741;48.964;9.406;2022-10-31T02:37:07;12.93;;;4.93;;
13343;SDS011;6741;48.964;9.406;2022-10-31T02:39:39;8.30;;;5.13;;
13343;SDS011;6741;48.964;9.406;2022-10-31T02:42:19;10.03;;;5.20;;
13343;SDS011;6741;48.964;9.406;2022-10-31T02:44:58;8.27;;;4.97;;
13343;SDS011;6741;48.964;9.406;2022-10-31T02:47:32;8.03;;;5.63;;
13343;SDS011;6741;48.964;9.406;2022-10-31T02:50:03;10.70;;;5.43;;
13343;SDS011;6741;48.964;9.406;2022-10-31T02:52:35;7.67;;;5.37;;
13343;SDS011;6741;48.964;9.406;2022-10-31T02:55:09;7.83;;;5.20;;
13343;SDS011;6741;48.964;9.406;2022-10-31T02:57:38;7.60;;;5.23;;
13343;SDS011;6741;48.964;9.406;2022-10-31T03:00:08;8.77;;;5.40;;
13343;SDS011;6741;48.964;9.406;2022-10-31T03:02:49;6.33;;;4.87;;
13343;SDS011;6741;48.964;9.406;2022-10-31T03:05:26;9.53;;;5.23;;
13343;SDS011;6741;48.964;9.406;2022-10-31T03:08:13;8.27;;;6.07;;
13343;SDS011;6741;48.964;9.406;2022-10-31T03:10:47;8.17;;;4.77;;
13343;SDS011;6741;48.964;9.406;2022-10-31T03:13:21;9.60;;;4.80;;
13343;SDS011;6741;48.964;9.406;2022-10-31T03:15:56;8.70;;;5.00;;
13343;SDS011;6741;48.964;9.406;2022-10-31T03:18:34;11.03;;;5.80;;
13343;SDS011;6741;48.964;9.406;2022-10-31T03:21:06;6.90;;;4.70;;
13343;SDS011;6741;48.964;9.406;2022-10-31T03:23:37;6.80;;;4.80;;
13343;SDS011;6741;48.964;9.406;2022-10-31T03:26:07;10.53;;;5.70;;
13343;SDS011;6741;48.964;9.406;2022-10-31T03:28:36;10.00;;;4.83;;
13343;SDS011;6741;48.964;9.406;2022-10-31T03:31:06;8.23;;;5.50;;
13343;SDS011;6741;48.964;9.406;2022-10-31T03:33:38;16.50;;;8.17;;
13343;SDS011;6741;48.964;9.406;2022-10-31T03:36:07;14.73;;;7.70;;
13343;SDS011;6741;48.964;9.406;2022-10-31T03:38:37;15.80;;;8.30;;
13343;SDS011;6741;48.964;9.406;2022-10-31T03:41:05;13.47;;;7.40;;
13343;SDS011;6741;48.964;9.406;2022-10-31T03:43:38;13.00;;;7.50;;
13343;SDS011;6741;48.964;9.406;2022-10-31T03:46:10;9.47;;;6.37;;
13343;SDS011;6741;48.964;9.406;2022-10-31T03:48:38;10.90;;;7.77;;
13343;SDS011;6741;48.964;9.406;2022-10-31T03:51:06;14.23;;;7.07;;
13343;SDS011;6741;48.964;9.406;2022-10-31T03:53:39;12.63;;;7.23;;
13343;SDS011;6741;48.964;9.406;2022-10-31T03:56:12;11.10;;;6.70;;
13343;SDS011;6741;48.964;9.406;2022-10-31T03:58:47;10.23;;;6.67;;
13343;SDS011;6741;48.964;9.406;2022-10-31T04:01:18;17.63;;;6.17;;
13343;SDS011;6741;48.964;9.406;2022-10-31T04:03:49;10.80;;;5.60;;
13343;SDS011;6741;48.964;9.406;2022-10-31T04:06:16;8.03;;;5.30;;
13343;SDS011;6741;48.964;9.406;2022-10-31T04:08:45;8.80;;;5.77;;
13343;SDS011;6741;48.964;9.406;2022-10-31T04:11:18;9.57;;;6.23;;
13343;SDS011;6741;48.964;9.406;2022-10-31T04:13:49;7.00;;;5.33;;
13343;SDS011;6741;48.964;9.406;2022-10-31T04:16:17;8.93;;;5.33;;
13343;SDS011;6741;48.964;9.406;2022-10-31T04:18:46;8.10;;;5.63;;
13343;SDS011;6741;48.964;9.406;2022-10-31T04:21:14;8.10;;;5.97;;
13343;SDS011;6741;48.964;9.406;2022-10-31T04:23:41;9.53;;;6.23;;
13343;SDS011;6741;48.964;9.406;2022-10-31T04:26:09;8.47;;;6.33;;
13343;SDS011;6741;48.964;9.406;2022-10-31T04:28:37;11.33;;;7.00;;
13343;SDS011;6741;48.964;9.406;2022-10-31T04:31:05;11.00;;;6.83;;
13343;SDS011;6741;48.964;9.406;2022-10-31T04:33:32;8.67;;;6.60;;
13343;SDS011;6741;48.964;9.406;2022-10-31T04:35:58;9.23;;;6.87;;
13343;SDS011;6741;48.964;9.406;2022-10-31T04:38:27;9.03;;;6.97;;
13343;SDS011;6741;48.964;9.406;2022-10-31T04:40:54;10.87;;;7.17;;
13343;SDS011;6741;48.964;9.406;2022-10-31T04:43:21;14.13;;;7.87;;
13343;SDS011;6741;48.964;9.406;2022-10-31T04:45:47;12.53;;;7.83;;
13343;SDS011;6741;48.964;9.406;2022-10-31T04:48:14;17.37;;;8.13;;
13343;SDS011;6741;48.964;9.406;2022-10-31T04:50:41;12.60;;;8.43;;
13343;SDS011;6741;48.964;9.406;2022-10-31T04:53:08;13.50;;;8.80;;
13343;SDS011;6741;48.964;9.406;2022-10-31T04:55:37;12.87;;;9.00;;
13343;SDS011;6741;48.964;9.406;2022-10-31T04:58:04;14.37;;;8.17;;
13343;SDS011;6741;48.964;9.406;2022-10-31T05:00:30;11.33;;;7.90;;
13343;SDS011;6741;48.964;9.406;2022-10-31T05:03:01;11.23;;;6.97;;
13343;SDS011;6741;48.964;9.406;2022-10-31T05:05:29;9.83;;;6.73;;
13343;SDS011;6741;48.964;9.406;2022-10-31T05:07:57;14.27;;;6.93;;
13343;SDS011;6741;48.964;9.406;2022-10-31T05:10:24;13.07;;;8.00;;
13343;SDS011;6741;48.964;9.406;2022-10-31T05:12:54;18.63;;;14.00;;
13343;SDS011;6741;48.964;9.406;2022-10-31T05:15:23;12.77;;;10.37;;
13343;SDS011;6741;48.964;9.406;2022-10-31T05:17:51;11.47;;;8.00;;
13343;SDS011;6741;48.964;9.406;2022-10-31T05:20:20;13.53;;;6.93;;
13343;SDS011;6741;48.964;9.406;2022-10-31T05:22:51;10.53;;;6.60;;
13343;SDS011;6741;48.964;9.406;2022-10-31T05:25:20;7.60;;;6.10;;
13343;SDS011;6741;48.964;9.406;2022-10-31T05:27:49;7.57;;;6.30;;
13343;SDS011;6741;48.964;9.406;2022-10-31T05:30:19;7.80;;;5.87;;
13343;SDS011;6741;48.964;9.406;2022-10-31T05:32:48;10.73;;;5.83;;
13343;SDS011;6741;48.964;9.406;2022-10-31T05:35:17;9.87;;;6.20;;
13343;SDS011;6741;48.964;9.406;2022-10-31T05:37:44;10.13;;;7.40;;
13343;SDS011;6741;48.964;9.406;2022-10-31T05:40:12;12.03;;;8.40;;
13343;SDS011;6741;48.964;9.406;2022-10-31T05:42:40;11.23;;;9.80;;
13343;SDS011;6741;48.964;9.406;2022-10-31T05:45:09;10.07;;;7.80;;
13343;SDS011;6741;48.964;9.406;2022-10-31T05:47:38;8.00;;;6.43;;
13343;SDS011;6741;48.964;9.406;2022-10-31T05:50:05;9.53;;;7.13;;
13343;SDS011;6741;48.964;9.406;2022-10-31T05:52:33;9.27;;;6.63;;
13343;SDS011;6741;48.964;9.406;2022-10-31T05:55:01;11.13;;;6.77;;
13343;SDS011;6741;48.964;9.406;2022-10-31T05:57:28;10.90;;;6.83;;
13343;SDS011;6741;48.964;9.406;2022-10-31T05:59:57;12.13;;;5.80;;
13343;SDS011;6741;48.964;9.406;2022-10-31T06:02:24;11.30;;;5.77;;
13343;SDS011;6741;48.964;9.406;2022-10-31T06:04:53;9.37;;;7.07;;
13343;SDS011;6741;48.964;9.406;2022-10-31T06:07:20;11.00;;;8.10;;
13343;SDS011;6741;48.964;9.406;2022-10-31T06:09:47;9.07;;;6.80;;
13343;SDS011;6741;48.964;9.406;2022-10-31T06:12:14;8.93;;;7.00;;
13343;SDS011;6741;48.964;9.406;2022-10-31T06:14:41;9.60;;;7.37;;
13343;SDS011;6741;48.964;9.406;2022-10-31T06:17:08;8.73;;;7.33;;
13343;SDS011;6741;48.964;9.406;2022-10-31T06:19:35;9.83;;;7.23;;
13343;SDS011;6741;48.964;9.406;2022-10-31T06:22:03;8.10;;;6.70;;
13343;SDS011;6741;48.964;9.406;2022-10-31T06:24:30;11.67;;;6.87;;
13343;SDS011;6741;48.964;9.406;2022-10-31T06:26:57;8.03;;;6.60;;
13343;SDS011;6741;48.964;9.406;2022-10-31T06:29:24;6.60;;;5.93;;
13343;SDS011;6741;48.964;9.406;2022-10-31T06:31:51;7.77;;;5.90;;
13343;SDS011;6741;48.964;9.406;2022-10-31T06:34:18;8.80;;;6.10;;
13343;SDS011;6741;48.964;9.406;2022-10-31T06:36:45;7.60;;;5.67;;
13343;SDS011;6741;48.964;9.406;2022-10-31T06:39:13;7.67;;;5.90;;
13343;SDS011;6741;48.964;9.406;2022-10-31T06:41:41;7.63;;;6.60;;
13343;SDS011;6741;48.964;9.406;2022-10-31T06:44:08;8.57;;;6.60;;
13343;SDS011;6741;48.964;9.406;2022-10-31T06:46:34;7.23;;;6.33;;
13343;SDS011;6741;48.964;9.406;2022-10-31T06:49:01;6.83;;;6.13;;
13343;SDS011;6741;48.964;9.406;2022-10-31T06:51:28;8.03;;;5.73;;
13343;SDS011;6741;48.964;9.406;2022-10-31T06:53:55;7.27;;;5.93;;
13343;SDS011;6741;48.964;9.406;2022-10-31T06:56:24;6.63;;;6.00;;
13343;SDS011;6741;48.964;9.406;2022-10-31T06:58:50;7.73;;;6.73;;
13343;SDS011;6741;48.964;9.406;2022-10-31T07:01:17;7.53;;;6.10;;
13343;SDS011;6741;48.964;9.406;2022-10-31T07:03:47;7.70;;;6.17;;
13343;SDS011;6741;48.964;9.406;2022-10-31T07:06:22;6.97;;;6.20;;
13343;SDS011;6741;48.964;9.406;2022-10-31T07:08:55;10.17;;;6.07;;
13343;SDS011;6741;48.964;9.406;2022-10-31T07:11:31;8.40;;;6.40;;
13343;SDS011;6741;48.964;9.406;2022-10-31T07:14:00;7.70;;;6.00;;
13343;SDS011;6741;48.964;9.406;2022-10-31T07:16:40;9.57;;;6.33;;
13343;SDS011;6741;48.964;9.406;2022-10-31T07:19:12;9.47;;;7.37;;
13343;SDS011;6741;48.964;9.406;2022-10-31T07:21:40;10.63;;;7.43;;
13343;SDS011;6741;48.964;9.406;2022-10-31T07:24:07;11.93;;;7.77;;
13343;SDS011;6741;48.964;9.406;2022-10-31T07:26:35;16.03;;;9.20;;
13343;SDS011;6741;48.964;9.406;2022-10-31T07:29:09;15.17;;;9.47;;
13343;SDS011;6741;48.964;9.406;2022-10-31T07:31:41;14.10;;;9.20;;
13343;SDS011;6741;48.964;9.406;2022-10-31T07:34:09;11.63;;;8.37;;
13343;SDS011;6741;48.964;9.406;2022-10-31T07:36:36;11.20;;;8.70;;
13343;SDS011;6741;48.964;9.406;2022-10-31T07:39:03;12.67;;;9.17;;
13343;SDS011;6741;48.964;9.406;2022-10-31T07:41:30;15.93;;;10.83;;
13343;SDS011;6741;48.964;9.406;2022-10-31T07:43:58;16.27;;;11.03;;
13343;SDS011;6741;48.964;9.406;2022-10-31T07:46:25;16.10;;;10.80;;
13343;SDS011;6741;48.964;9.406;2022-10-31T07:48:52;12.73;;;9.63;;
13343;SDS011;6741;48.964;9.406;2022-10-31T07:51:19;15.37;;;9.57;;
13343;SDS011;6741;48.964;9.406;2022-10-31T07:53:46;13.70;;;9.83;;
13343;SDS011;6741;48.964;9.406;2022-10-31T07:56:13;13.00;;;9.83;;
13343;SDS011;6741;48.964;9.406;2022-10-31T07:58:40;14.83;;;8.37;;
13343;SDS011;6741;48.964;9.406;2022-10-31T08:01:08;11.13;;;7.80;;
13343;SDS011;6741;48.964;9.406;2022-10-31T08:03:35;9.77;;;7.93;;
13343;SDS011;6741;48.964;9.406;2022-10-31T08:06:02;10.57;;;7.73;;
13343;SDS011;6741;48.964;9.406;2022-10-31T08:08:29;10.80;;;7.23;;
13343;SDS011;6741;48.964;9.406;2022-10-31T08:10:58;11.67;;;6.43;;
13343;SDS011;6741;48.964;9.406;2022-10-31T08:13:25;10.93;;;5.80;;
13343;SDS011;6741;48.964;9.406;2022-10-31T08:15:52;10.33;;;5.93;;
13343;SDS011;6741;48.964;9.406;2022-10-31T08:18:22;7.10;;;5.97;;
13343;SDS011;6741;48.964;9.406;2022-10-31T08:20:49;7.83;;;6.40;;
13343;SDS011;6741;48.964;9.406;2022-10-31T08:23:16;11.07;;;6.03;;
13343;SDS011;6741;48.964;9.406;2022-10-31T08:25:43;8.50;;;5.50;;
13343;SDS011;6741;48.964;9.406;2022-10-31T08:28:11;8.40;;;5.73;;
13343;SDS011;6741;48.964;9.406;2022-10-31T08:30:39;8.63;;;5.73;;
13343;SDS011;6741;48.964;9.406;2022-10-31T08:33:09;8.30;;;6.07;;
13343;SDS011;6741;48.964;9.406;2022-10-31T08:35:39;6.60;;;5.60;;
13343;SDS011;6741;48.964;9.406;2022-10-31T08:38:06;7.47;;;6.03;;
13343;SDS011;6741;48.964;9.406;2022-10-31T08:40:35;8.67;;;6.00;;
13343;SDS011;6741;48.964;9.406;2022-10-31T08:43:03;9.80;;;5.80;;
13343;SDS011;6741;48.964;9.406;2022-10-31T08:45:31;7.83;;;5.60;;
13343;SDS011;6741;48.964;9.406;2022-10-31T08:48:00;7.97;;;6.37;;
13343;SDS011;6741;48.964;9.406;2022-10-31T08:50:28;7.53;;;6.00;;
13343;SDS011;6741;48.964;9.406;2022-10-31T08:53:00;7.57;;;5.77;;
13343;SDS011;6741;48.964;9.406;2022-10-31T08:55:28;7.87;;;5.63;;
13343;SDS011;6741;48.964;9.406;2022-10-31T08:57:56;5.80;;;5.10;;
13343;SDS011;6741;48.964;9.406;2022-10-31T09:00:23;6.90;;;5.17;;
13343;SDS011;6741;48.964;9.406;2022-10-31T09:02:54;8.07;;;5.83;;
13343;SDS011;6741;48.964;9.406;2022-10-31T09:05:22;9.10;;;6.17;;
13343;SDS011;6741;48.964;9.406;2022-10-31T09:07:49;11.13;;;6.53;;
13343;SDS011;6741;48.964;9.406;2022-10-31T09:10:17;8.30;;;5.47;;
13343;SDS011;6741;48.964;9.406;2022-10-31T09:12:44;8.23;;;5.33;;
13343;SDS011;6741;48.964;9.406;2022-10-31T09:15:11;6.83;;;5.97;;
13343;SDS011;6741;48.964;9.406;2022-10-31T09:17:38;8.97;;;6.07;;
13343;SDS011;6741;48.964;9.406;2022-10-31T09:20:07;11.07;;;5.87;;
13343;SDS011;6741;48.964;9.406;2022-10-31T09:22:37;13.50;;;5.93;;
13343;SDS011;6741;48.964;9.406;2022-10-31T09:25:03;7.77;;;5.20;;
13343;SDS011;6741;48.964;9.406;2022-10-31T09:27:32;8.40;;;5.87;;
13343;SDS011;6741;48.964;9.406;2022-10-31T09:29:59;9.97;;;6.77;;
13343;SDS011;6741;48.964;9.406;2022-10-31T09:32:26;7.03;;;5.67;;
13343;SDS011;6741;48.964;9.406;2022-10-31T09:34:53;8.63;;;6.07;;
13343;SDS011;6741;48.964;9.406;2022-10-31T09:37:20;10.67;;;5.77;;
13343;SDS011;6741;48.964;9.406;2022-10-31T09:39:47;10.90;;;5.90;;
13343;SDS011;6741;48.964;9.406;2022-10-31T09:42:19;10.87;;;6.00;;
13343;SDS011;6741;48.964;9.406;2022-10-31T09:45:06;8.27;;;5.80;;
13343;SDS011;6741;48.964;9.406;2022-10-31T09:47:40;9.03;;;5.80;;
13343;SDS011;6741;48.964;9.406;2022-10-31T09:50:22;8.55;;;5.93;;
13343;SDS011;6741;48.964;9.406;2022-10-31T09:52:53;9.50;;;5.82;;
13343;SDS011;6741;48.964;9.406;2022-10-31T09:55:26;12.57;;;6.38;;
13343;SDS011;6741;48.964;9.406;2022-10-31T09:58:02;9.43;;;5.82;;
13343;SDS011;6741;48.964;9.406;2022-10-31T10:00:30;12.20;;;6.25;;
13343;SDS011;6741;48.964;9.406;2022-10-31T10:02:59;8.80;;;6.00;;
13343;SDS011;6741;48.964;9.406;2022-10-31T10:05:37;12.65;;;5.72;;
13343;SDS011;6741;48.964;9.406;2022-10-31T10:08:08;9.63;;;5.80;;
13343;SDS011;6741;48.964;9.406;2022-10-31T10:10:41;9.93;;;5.88;;
13343;SDS011;6741;48.964;9.406;2022-10-31T10:13:21;8.98;;;5.78;;
13343;SDS011;6741;48.964;9.406;2022-10-31T10:16:11;10.73;;;6.53;;
13343;SDS011;6741;48.964;9.406;2022-10-31T10:18:50;13.60;;;5.75;;
13343;SDS011;6741;48.964;9.406;2022-10-31T10:21:32;11.68;;;5.82;;
13343;SDS011;6741;48.964;9.406;2022-10-31T10:24:14;11.57;;;6.05;;
13343;SDS011;6741;48.964;9.406;2022-10-31T10:26:58;12.13;;;6.70;;
13343;SDS011;6741;48.964;9.406;2022-10-31T10:29:40;9.93;;;5.80;;
13343;SDS011;6741;48.964;9.406;2022-10-31T10:32:17;9.60;;;6.13;;
13343;SDS011;6741;48.964;9.406;2022-10-31T10:34:47;7.15;;;6.13;;
13343;SDS011;6741;48.964;9.406;2022-10-31T10:37:21;8.57;;;5.80;;
13343;SDS011;6741;48.964;9.406;2022-10-31T10:39:53;11.18;;;5.78;;
13343;SDS011;6741;48.964;9.406;2022-10-31T10:42:23;8.25;;;6.03;;
13343;SDS011;6741;48.964;9.406;2022-10-31T10:45:15;12.98;;;6.03;;
13343;SDS011;6741;48.964;9.406;2022-10-31T10:48:05;10.52;;;6.20;;
13343;SDS011;6741;48.964;9.406;2022-10-31T10:50:39;8.45;;;5.78;;
13343;SDS011;6741;48.964;9.406;2022-10-31T10:53:13;6.30;;;5.50;;
13343;SDS011;6741;48.964;9.406;2022-10-31T10:55:59;7.97;;;5.28;;
13343;SDS011;6741;48.964;9.406;2022-10-31T10:58:36;11.13;;;6.50;;
13343;SDS011;6741;48.964;9.406;2022-10-31T11:01:10;8.38;;;5.68;;
13343;SDS011;6741;48.964;9.406;2022-10-31T11:03:38;13.88;;;6.15;;
13343;SDS011;6741;48.964;9.406;2022-10-31T11:06:15;12.75;;;6.45;;
13343;SDS011;6741;48.964;9.406;2022-10-31T11:08:47;12.20;;;6.28;;
13343;SDS011;6741;48.964;9.406;2022-10-31T11:11:22;8.13;;;6.18;;
13343;SDS011;6741;48.964;9.406;2022-10-31T11:13:54;12.48;;;5.90;;
13343;SDS011;6741;48.964;9.406;2022-10-31T11:16:31;8.95;;;6.28;;
13343;SDS011;6741;48.964;9.406;2022-10-31T11:19:13;10.77;;;6.15;;
13343;SDS011;6741;48.964;9.406;2022-10-31T11:21:43;12.88;;;6.38;;
13343;SDS011;6741;48.964;9.406;2022-10-31T11:24:15;10.68;;;5.85;;
13343;SDS011;6741;48.964;9.406;2022-10-31T11:26:44;10.05;;;6.38;;
13343;SDS011;6741;48.964;9.406;2022-10-31T11:29:13;7.93;;;6.13;;
13343;SDS011;6741;48.964;9.406;2022-10-31T11:31:43;7.75;;;5.53;;
13343;SDS011;6741;48.964;9.406;2022-10-31T11:34:24;9.75;;;5.43;;
13343;SDS011;6741;48.964;9.406;2022-10-31T11:36:54;8.27;;;5.85;;
13343;SDS011;6741;48.964;9.406;2022-10-31T11:39:25;10.15;;;6.70;;
13343;SDS011;6741;48.964;9.406;2022-10-31T11:41:52;7.22;;;5.95;;
13343;SDS011;6741;48.964;9.406;2022-10-31T11:44:21;11.25;;;6.22;;
13343;SDS011;6741;48.964;9.406;2022-10-31T11:46:52;8.80;;;5.97;;
13343;SDS011;6741;48.964;9.406;2022-10-31T11:49:24;12.77;;;7.13;;
13343;SDS011;6741;48.964;9.406;2022-10-31T11:51:56;12.25;;;6.63;;
13343;SDS011;6741;48.964;9.406;2022-10-31T11:54:25;8.57;;;6.32;;
13343;SDS011;6741;48.964;9.406;2022-10-31T11:56:54;12.48;;;6.40;;
13343;SDS011;6741;48.964;9.406;2022-10-31T11:59:23;9.27;;;6.40;;
13343;SDS011;6741;48.964;9.406;2022-10-31T12:01:55;11.48;;;6.55;;
13343;SDS011;6741;48.964;9.406;2022-10-31T12:04:24;10.85;;;6.80;;
13343;SDS011;6741;48.964;9.406;2022-10-31T12:07:04;13.07;;;6.70;;
13343;SDS011;6741;48.964;9.406;2022-10-31T12:09:33;8.85;;;6.60;;
13343;SDS011;6741;48.964;9.406;2022-10-31T12:12:05;10.32;;;6.60;;
13343;SDS011;6741;48.964;9.406;2022-10-31T12:14:50;9.95;;;6.70;;
13343;SDS011;6741;48.964;9.406;2022-10-31T12:17:26;7.13;;;5.57;;
13343;SDS011;6741;48.964;9.406;2022-10-31T12:20:03;14.07;;;5.72;;
13343;SDS011;6741;48.964;9.406;2022-10-31T12:22:41;7.82;;;5.45;;
13343;SDS011;6741;48.964;9.406;2022-10-31T12:25:19;8.52;;;5.47;;
13343;SDS011;6741;48.964;9.406;2022-10-31T12:27:57;8.63;;;6.13;;
13343;SDS011;6741;48.964;9.406;2022-10-31T12:30:56;9.38;;;6.47;;
13343;SDS011;6741;48.964;9.406;2022-10-31T12:33:37;9.52;;;6.32;;
13343;SDS011;6741;48.964;9.406;2022-10-31T12:36:21;8.80;;;6.13;;
13343;SDS011;6741;48.964;9.406;2022-10-31T12:42:01;10.15;;;5.97;;
13343;SDS011;6741;48.964;9.406;2022-10-31T12:44:48;9.27;;;5.75;;
13343;SDS011;6741;48.964;9.406;2022-10-31T12:47:33;8.73;;;5.78;;
13343;SDS011;6741;48.964;9.406;2022-10-31T12:53:05;6.43;;;5.47;;
13343;SDS011;6741;48.964;9.406;2022-10-31T12:55:45;5.80;;;5.10;;
13343;SDS011;6741;48.964;9.406;2022-10-31T12:58:23;9.07;;;5.53;;
13343;SDS011;6741;48.964;9.406;2022-10-31T13:00:55;11.23;;;6.13;;
13343;SDS011;6741;48.964;9.406;2022-10-31T13:03:30;9.35;;;6.22;;
13343;SDS011;6741;48.964;9.406;2022-10-31T13:06:05;8.93;;;6.03;;
13343;SDS011;6741;48.964;9.406;2022-10-31T13:08:36;12.80;;;6.15;;
13343;SDS011;6741;48.964;9.406;2022-10-31T13:11:10;14.02;;;6.63;;
13343;SDS011;6741;48.964;9.406;2022-10-31T13:13:42;11.10;;;5.60;;
13343;SDS011;6741;48.964;9.406;2022-10-31T13:16:14;10.02;;;6.53;;
13343;SDS011;6741;48.964;9.406;2022-10-31T13:18:46;11.70;;;6.32;;
13343;SDS011;6741;48.964;9.406;2022-10-31T13:21:20;11.40;;;6.18;;
13343;SDS011;6741;48.964;9.406;2022-10-31T13:23:50;9.80;;;5.65;;
13343;SDS011;6741;48.964;9.406;2022-10-31T13:26:20;8.13;;;6.05;;
13343;SDS011;6741;48.964;9.406;2022-10-31T13:28:54;10.02;;;6.65;;
13343;SDS011;6741;48.964;9.406;2022-10-31T13:31:30;8.52;;;6.70;;
13343;SDS011;6741;48.964;9.406;2022-10-31T13:33:57;9.68;;;6.95;;
13343;SDS011;6741;48.964;9.406;2022-10-31T13:36:30;8.20;;;5.88;;
13343;SDS011;6741;48.964;9.406;2022-10-31T13:39:03;11.73;;;6.55;;
13343;SDS011;6741;48.964;9.406;2022-10-31T13:41:40;13.23;;;6.47;;
13343;SDS011;6741;48.964;9.406;2022-10-31T13:44:13;8.95;;;6.47;;
13343;SDS011;6741;48.964;9.406;2022-10-31T13:46:44;8.38;;;5.88;;
13343;SDS011;6741;48.964;9.406;2022-10-31T13:49:25;10.88;;;6.45;;
13343;SDS011;6741;48.964;9.406;2022-10-31T13:54:52;8.35;;;5.68;;
13343;SDS011;6741;48.964;9.406;2022-10-31T13:57:24;11.73;;;6.20;;
13343;SDS011;6741;48.964;9.406;2022-10-31T14:00:01;9.93;;;6.32;;
13343;SDS011;6741;48.964;9.406;2022-10-31T14:02:31;7.65;;;6.82;;
13343;SDS011;6741;48.964;9.406;2022-10-31T14:05:02;8.05;;;6.15;;
13343;SDS011;6741;48.964;9.406;2022-10-31T14:07:33;10.15;;;6.18;;
13343;SDS011;6741;48.964;9.406;2022-10-31T14:10:01;9.80;;;6.32;;
13343;SDS011;6741;48.964;9.406;2022-10-31T14:12:31;8.45;;;5.40;;
13343;SDS011;6741;48.964;9.406;2022-10-31T14:15:04;11.05;;;5.97;;
13343;SDS011;6741;48.964;9.406;2022-10-31T14:17:44;13.23;;;5.50;;
13343;SDS011;6741;48.964;9.406;2022-10-31T14:26:20;14.55;;;6.20;;
13343;SDS011;6741;48.964;9.406;2022-10-31T14:28:58;12.48;;;5.72;;
13343;SDS011;6741;48.964;9.406;2022-10-31T14:31:35;14.35;;;5.93;;
13343;SDS011;6741;48.964;9.406;2022-10-31T14:34:06;16.17;;;6.00;;
13343;SDS011;6741;48.964;9.406;2022-10-31T14:36:50;13.27;;;5.93;;
13343;SDS011;6741;48.964;9.406;2022-10-31T14:39:45;13.30;;;5.15;;
13343;SDS011;6741;48.964;9.406;2022-10-31T14:42:27;11.07;;;5.70;;
13343;SDS011;6741;48.964;9.406;2022-10-31T14:45:10;7.85;;;5.18;;
13343;SDS011;6741;48.964;9.406;2022-10-31T14:47:58;8.90;;;4.95;;
13343;SDS011;6741;48.964;9.406;2022-10-31T14:50:38;7.72;;;5.07;;
13343;SDS011;6741;48.964;9.406;2022-10-31T14:53:12;8.70;;;5.57;;
13343;SDS011;6741;48.964;9.406;2022-10-31T14:55:46;9.45;;;5.55;;
13343;SDS011;6741;48.964;9.406;2022-10-31T14:58:17;8.10;;;5.35;;
13343;SDS011;6741;48.964;9.406;2022-10-31T15:00:48;8.73;;;5.75;;
13343;SDS011;6741;48.964;9.406;2022-10-31T15:03:18;15.23;;;5.93;;
13343;SDS011;6741;48.964;9.406;2022-10-31T15:05:51;11.25;;;5.70;;
13343;SDS011;6741;48.964;9.406;2022-10-31T15:08:30;8.15;;;5.57;;
13343;SDS011;6741;48.964;9.406;2022-10-31T15:11:02;11.27;;;5.95;;
13343;SDS011;6741;48.964;9.406;2022-10-31T15:13:40;9.57;;;5.97;;
13343;SDS011;6741;48.964;9.406;2022-10-31T15:16:08;11.90;;;6.18;;
13343;SDS011;6741;48.964;9.406;2022-10-31T15:18:38;16.20;;;6.35;;
13343;SDS011;6741;48.964;9.406;2022-10-31T15:21:11;13.80;;;6.43;;
13343;SDS011;6741;48.964;9.406;2022-10-31T15:23:41;13.77;;;6.25;;
13343;SDS011;6741;48.964;9.406;2022-10-31T15:26:12;13.48;;;7.47;;
13343;SDS011;6741;48.964;9.406;2022-10-31T15:28:44;15.13;;;7.20;;
13343;SDS011;6741;48.964;9.406;2022-10-31T15:31:12;11.20;;;6.82;;
13343;SDS011;6741;48.964;9.406;2022-10-31T15:33:42;13.90;;;6.88;;